Latest Weather Observations for Curtin

IDW60801

Issued at 6:34 pm WST Sunday 25 June 2017 (issued every 30 minutes, with the page automatically refreshed every 10 minutes)

About weather observations | Map of weather stations | Latest weather observations for WA | Other Formats
Station Details ID: 003080 Name: CURTIN AERO Lat: -17.58 Lon: 123.83 Height: 77.5 m
Data from the previous 72 hours. | See also: Recent months at Curtin
Date/Time
WST
Temp
°C
App
Temp
°C
Dew
Point
°C
Rel
Hum
%
Delta-T
°C
Wind Press
QNH
hPa
Press
MSL
hPa
Rain since
9am
mm
Dir  Spd
km/h
Gust
km/h
Spd
kts
Gust
kts
25/06:30pm 22.9 21.7 10.3 45 6.9 N 7 9 4 5 1011.7 1011.4 0.0
25/06:00pm 24.7 23.1 10.2 40 8.0 N 9 11 5 6 1011.3 1011.0 0.0
25/05:30pm 27.0 25.9 10.7 36 9.2 NNW 7 9 4 5 1010.9 1010.6 0.0
25/05:00pm 28.9 27.9 11.0 33 10.3 NW 7 11 4 6 1010.7 1010.4 0.0
25/04:30pm 31.5 30.7 11.8 30 11.6 NW 7 9 4 5 1010.4 1010.1 0.0
25/04:00pm 32.0 30.8 11.7 28 11.9 NNW 9 13 5 7 1010.2 1009.9 0.0
25/03:30pm 31.5 30.4 11.8 30 11.6 NNW 9 11 5 6 1010.1 1009.8 0.0
25/03:00pm 32.0 31.2 11.2 28 12.1 SE 6 9 3 5 1010.1 1009.8 0.0
25/02:30pm 32.7 31.4 11.3 27 12.5 W 9 13 5 7 1010.2 1009.9 0.0
25/02:00pm 32.4 31.0 11.0 27 12.5 W 9 13 5 7 1010.4 1010.1 0.0
25/01:30pm 31.7 29.9 11.0 28 12.0 NNW 11 15 6 8 1010.7 1010.4 0.0
25/01:00pm 31.3 29.7 11.7 30 11.5 SSE 11 17 6 9 1011.0 1010.7 0.0
25/12:30pm 31.5 30.7 11.8 30 11.6 WSW 7 13 4 7 1011.4 1011.1 0.0
25/12:00pm 30.5 29.4 11.9 31 10.9 S 9 15 5 8 1011.8 1011.5 0.0
25/11:30am 30.1 28.5 11.6 32 10.8 SW 11 17 6 9 1012.4 1012.1 0.0
25/11:00am 29.7 28.0 12.6 35 10.1 SSE 13 20 7 11 1012.9 1012.6 0.0
25/10:30am 28.9 27.3 12.8 37 9.5 SSW 13 20 7 11 1013.4 1013.1 0.0
25/10:00am 27.9 26.0 13.1 40 8.7 S 15 20 8 11 1013.7 1013.4 0.0
25/09:30am 27.1 26.2 13.8 44 7.9 SSE 11 17 6 9 1013.9 1013.6 0.0
25/09:00am 25.9 25.1 14.1 48 7.0 SSE 11 17 6 9 1014.1 1013.8 0.0
25/08:30am 24.6 23.6 13.5 50 6.5 SSE 11 15 6 8 1013.9 1013.6 0.0
25/08:00am 22.6 23.1 15.0 62 4.5 ESE 6 9 3 5 1013.7 1013.4 0.0
25/07:30am 20.9 22.5 15.0 69 3.5 CALM 0 0 0 0 1013.4 1013.1 0.0
25/07:00am 18.6 19.2 15.3 81 1.9 NNE 6 7 3 4 1012.8 1012.5 0.0
25/06:30am 15.9 15.8 13.2 84 1.5 S 6 7 3 4 1012.4 1012.1 0.0
25/06:00am 17.5 17.8 14.6 83 1.7 S 6 7 3 4 1012.0 1011.7 0.0
25/05:30am 17.7 17.4 14.4 81 1.9 S 9 9 5 5 1011.7 1011.4 0.0
25/05:00am 17.7 17.1 14.6 82 1.8 SSE 11 11 6 6 1011.5 1011.2 0.0
25/04:30am 17.3 16.9 13.0 76 2.4 SSE 7 9 4 5 1011.4 1011.1 0.0
25/04:00am 17.5 17.1 14.0 80 2.0 S 9 11 5 6 1011.5 1011.2 0.0
25/03:30am 17.6 17.3 13.3 76 2.4 S 7 9 4 5 1011.5 1011.2 0.0
25/03:00am 18.4 17.9 13.9 75 2.6 SSW 9 9 5 5 1011.5 1011.2 0.0
25/02:30am 19.0 18.6 14.1 73 2.8 SSW 9 11 5 6 1011.6 1011.3 0.0
25/02:00am 19.7 18.9 14.1 70 3.2 SW 11 13 6 7 1011.7 1011.4 0.0
25/01:30am 19.2 18.4 12.9 67 3.6 SW 9 11 5 6 1011.7 1011.4 0.0
25/01:00am 19.8 19.3 12.6 63 4.1 SW 7 9 4 5 1011.9 1011.6 0.0
25/12:30am 20.0 19.5 12.5 62 4.2 WSW 7 7 4 4 1012.1 1011.8 0.0
25/12:00am 20.4 19.5 12.6 61 4.4 WSW 9 9 5 5 1012.1 1011.8 0.0
 
Date/Time
WST
Temp
°C
App
Temp
°C
Dew
Point
°C
Rel
Hum
%
Delta-T
°C
Wind Press
QNH
hPa
Press
MSL
hPa
Rain since
9am
mm
Dir  Spd
km/h
Gust
km/h
Spd
kts
Gust
kts
24/11:30pm 21.1 20.2 12.5 58 4.9 W 9 11 5 6 1012.2 1011.9 0.0
24/11:00pm 20.7 19.3 12.1 58 4.8 W 11 13 6 7 1012.2 1011.9 0.0
24/10:30pm 19.8 18.7 10.5 55 5.0 NW 7 9 4 5 1012.4 1012.1 0.0
24/10:00pm 20.5 19.1 9.4 49 5.9 NNW 7 9 4 5 1012.5 1012.2 0.0
24/09:30pm 21.1 19.2 10.6 51 5.8 NW 11 13 6 7 1012.5 1012.2 0.0
24/09:00pm 19.7 18.6 9.9 53 5.3 NW 6 7 3 4 1012.4 1012.1 0.0
24/08:30pm 20.4 19.1 9.9 51 5.7 WNW 7 7 4 4 1012.2 1011.9 0.0
24/08:00pm 20.8 19.5 10.0 50 5.8 WNW 7 7 4 4 1011.9 1011.6 0.0
24/07:30pm 21.5 20.5 10.9 51 5.8 WNW 7 9 4 5 1011.7 1011.4 0.0
24/07:00pm 22.1 21.3 10.9 49 6.2 N 6 7 3 4 1011.2 1010.9 0.0
24/06:30pm 22.9 22.2 11.3 48 6.5 N 6 7 3 4 1010.9 1010.6 0.0
24/06:00pm 25.1 23.7 10.9 41 8.0 N 9 9 5 5 1010.6 1010.3 0.0
24/05:30pm 27.1 26.0 10.8 36 9.2 N 7 9 4 5 1010.3 1010.0 0.0
24/05:00pm 30.0 28.9 10.5 30 11.2 NW 7 11 4 6 1009.9 1009.6 0.0
24/04:30pm 32.4 31.7 8.6 23 13.3 NE 2 7 1 4 1009.6 1009.3 0.0
24/04:00pm 32.6 31.0 8.8 23 13.4 NNE 7 9 4 5 1009.2 1008.9 0.0
24/03:30pm 32.6 30.9 7.4 21 13.9 ENE 6 13 3 7 1009.0 1008.7 0.0
24/03:00pm 32.6 30.8 8.1 22 13.7 SSE 7 15 4 8 1008.9 1008.6 0.0
24/02:30pm 32.8 30.5 7.6 21 13.9 ESE 9 17 5 9 1008.9 1008.6 0.0
24/02:00pm 32.6 30.7 7.4 21 13.9 SE 7 15 4 8 1009.1 1008.8 0.0
24/01:30pm 32.9 30.7 7.7 21 14.0 N 9 15 5 8 1009.4 1009.1 0.0
24/01:00pm 32.4 30.4 7.3 21 13.8 SSE 7 11 4 6 1009.9 1009.6 0.0
24/12:30pm 32.7 30.8 8.9 23 13.4 E 9 15 5 8 1010.3 1010.0 0.0
24/12:00pm 31.8 30.0 8.1 23 13.2 E 7 11 4 6 1010.8 1010.5 0.0
24/11:30am 30.9 29.1 8.0 24 12.6 SE 7 15 4 8 1011.6 1011.3 0.0
24/11:00am 31.0 29.0 8.7 25 12.4 E 9 13 5 7 1012.3 1012.0 0.0
24/10:30am 30.5 28.9 8.8 26 12.1 E 7 13 4 7 1012.9 1012.6 0.0
24/10:00am 29.4 27.0 8.5 27 11.5 S 11 13 6 7 1013.2 1012.9 0.0
24/09:30am 28.4 26.0 8.7 29 10.8 SSE 11 15 6 8 1013.3 1013.0 0.0
24/09:00am 26.8 24.0 8.7 32 9.9 SSE 13 17 7 9 1013.6 1013.3 0.0
24/08:30am 25.5 23.3 9.3 36 8.9 SSE 11 17 6 9 1013.5 1013.2 0.0
24/08:00am 23.8 21.5 9.0 39 8.0 SE 11 15 6 8 1013.0 1012.7 0.0
24/07:30am 21.9 20.1 9.4 45 6.7 SE 9 13 5 7 1012.9 1012.6 0.0
24/07:00am 19.6 17.9 10.0 54 5.2 SE 9 11 5 6 1012.6 1012.3 0.0
24/06:30am 17.9 15.5 10.0 60 4.2 SSE 13 17 7 9 1012.3 1012.0 0.0
24/06:00am 17.7 15.9 10.8 64 3.7 SE 11 13 6 7 1011.9 1011.6 0.0
24/05:30am 17.0 15.4 11.5 70 3.0 SSE 11 11 6 6 1011.6 1011.3 0.0
24/05:00am 17.0 15.4 11.7 71 2.9 S 11 13 6 7 1011.6 1011.3 0.0
24/04:30am 17.6 16.0 11.6 68 3.3 SSE 11 13 6 7 1011.6 1011.3 0.0
24/04:00am 17.2 15.8 11.0 67 3.4 S 9 11 5 6 1011.5 1011.2 0.0
24/03:30am 17.7 16.5 11.5 67 3.4 S 9 11 5 6 1011.5 1011.2 0.0
24/03:00am 18.3 17.0 11.1 63 3.9 SSW 9 11 5 6 1011.7 1011.4 0.0
24/02:30am 18.9 17.6 11.2 61 4.2 SSW 9 9 5 5 1011.9 1011.6 0.0
24/02:00am 18.7 17.6 10.8 60 4.3 SSW 7 9 4 5 1012.0 1011.7 0.0
24/01:30am 18.8 17.4 10.9 60 4.3 SSW 9 9 5 5 1012.0 1011.7 0.0
24/01:00am 18.5 17.2 9.8 57 4.6 SW 7 9 4 5 1012.2 1011.9 0.0
24/12:30am 19.5 18.1 9.7 53 5.2 S 7 7 4 4 1012.5 1012.2 0.0
24/12:00am 19.5 17.8 9.7 53 5.2 S 9 11 5 6 1012.4 1012.1 0.0
 
Date/Time
WST
Temp
°C
App
Temp
°C
Dew
Point
°C
Rel
Hum
%
Delta-T
°C
Wind Press
QNH
hPa
Press
MSL
hPa
Rain since
9am
mm
Dir  Spd
km/h
Gust
km/h
Spd
kts
Gust
kts
23/11:30pm 19.9 18.5 10.9 56 4.9 SW 9 9 5 5 1012.6 1012.3 0.0
23/11:00pm 18.4 17.1 10.0 58 4.5 S 7 7 4 4 1012.6 1012.3 0.0
23/10:30pm 18.8 17.3 10.6 59 4.4 S 9 9 5 5 1012.7 1012.4 0.0
23/10:00pm 18.9 17.9 11.0 60 4.3 S 7 7 4 4 1012.8 1012.5 0.0
23/09:30pm 19.2 18.2 11.0 59 4.5 S 7 9 4 5 1012.8 1012.5 0.0
23/09:00pm 19.6 18.7 11.4 59 4.5 S 7 7 4 4 1012.6 1012.3 0.0
23/08:30pm 20.3 19.4 11.2 56 5.0 S 7 9 4 5 1012.6 1012.3 0.0
23/08:00pm 21.5 20.1 12.1 55 5.3 S 11 13 6 7 1012.6 1012.3 0.0
23/07:30pm 21.0 20.3 11.3 54 5.4 S 6 6 3 3 1012.0 1011.7 0.0
23/07:00pm 22.0 20.5 10.5 48 6.3 S 9 9 5 5 1011.9 1011.6 0.0
23/06:30pm 22.5 22.0 10.6 47 6.6 W 4 6 2 3 1011.6 1011.3 0.0
23/06:00pm 24.9 24.0 11.5 43 7.6 WSW 7 9 4 5 1011.3 1011.0 0.0
23/05:30pm 26.2 24.6 8.7 33 9.5 W 7 9 4 5 1011.0 1010.7 0.0
23/05:00pm 30.0 28.9 8.4 26 11.9 SSE 4 7 2 4 1010.8 1010.5 0.0
23/04:30pm 31.5 29.6 6.5 21 13.5 ESE 6 9 3 5 1010.6 1010.3 0.0
23/04:00pm 31.8 29.5 7.5 22 13.4 ESE 9 13 5 7 1010.4 1010.1 0.0
23/03:30pm 32.3 29.8 6.5 20 14.0 NNE 9 13 5 7 1010.3 1010.0 0.0
23/03:00pm 32.2 29.7 6.4 20 14.0 ESE 9 17 5 9 1010.4 1010.1 0.0
23/02:30pm 32.4 29.9 6.6 20 14.0 ESE 9 19 5 10 1010.6 1010.3 0.0
23/02:00pm 32.3 29.4 6.5 20 14.0 E 11 17 6 9 1010.9 1010.6 0.0
23/01:30pm 32.5 30.0 6.7 20 14.0 E 9 19 5 10 1011.3 1011.0 0.0
23/01:00pm 32.1 30.0 8.4 23 13.2 NE 9 15 5 8 1011.8 1011.5 0.0
23/12:30pm 31.9 29.8 8.2 23 13.2 ESE 9 17 5 9 1012.2 1011.9 0.0
23/12:00pm 31.4 28.9 8.4 24 12.8 E 11 17 6 9 1012.9 1012.6 0.0
23/11:30am 31.1 29.1 8.8 25 12.5 SE 9 15 5 8 1013.5 1013.2 0.0
23/11:00am 30.2 28.8 9.7 28 11.6 SE 7 13 4 7 1013.9 1013.6 0.0
23/10:30am 29.6 28.3 11.2 32 10.6 ESE 9 13 5 7 1014.5 1014.2 0.0
23/10:00am 28.8 27.8 12.2 35 9.7 S 9 13 5 7 1015.1 1014.7 0.0
23/09:30am 28.1 26.8 11.2 35 9.7 SE 9 13 5 7 1015.3 1014.9 0.0
23/09:00am 26.8 24.7 11.3 38 8.8 ESE 13 15 7 8 1015.4 1015.0 0.0
23/08:30am 26.5 24.9 12.9 43 8.0 SE 13 19 7 10 1015.3 1014.9 0.0
23/08:00am 24.7 23.2 13.0 48 6.8 SE 13 17 7 9 1015.1 1014.7 0.0
23/07:30am 22.0 20.3 12.5 54 5.4 SSE 13 17 7 9 1014.8 1014.4 0.0
23/07:00am 19.9 18.3 12.9 64 4.0 SSE 13 15 7 8 1014.5 1014.2 0.0
23/06:30am 17.5 16.6 12.6 73 2.7 S 9 11 5 6 1014.2 1013.9 0.0
23/06:00am 17.9 16.3 12.8 72 2.9 SSE 13 13 7 7 1014.0 1013.7 0.0
23/05:30am 17.9 16.8 13.0 73 2.8 SSE 11 13 6 7 1013.9 1013.6 0.0
23/05:00am 17.7 16.8 12.6 72 2.8 SSE 9 11 5 6 1013.7 1013.4 0.0
23/04:30am 18.4 17.9 12.8 70 3.1 SSE 7 9 4 5 1013.5 1013.2 0.0
23/04:00am 18.0 17.2 12.9 72 2.9 SSE 9 11 5 6 1013.5 1013.2 0.0
23/03:30am 18.2 17.4 12.9 71 3.0 S 9 11 5 6 1013.5 1013.2 0.0
23/03:00am 18.2 17.5 13.1 72 2.9 SSW 9 9 5 5 1013.5 1013.2 0.0
23/02:30am 18.5 17.6 12.7 69 3.3 SSW 9 9 5 5 1013.6 1013.3 0.0
23/02:00am 17.9 17.4 12.8 72 2.9 SW 7 9 4 5 1013.9 1013.6 0.0
23/01:30am 17.8 17.5 13.3 75 2.5 WSW 7 9 4 5 1014.1 1013.8 0.0
23/01:00am 17.6 17.0 13.5 77 2.3 WSW 9 11 5 6 1014.3 1014.0 0.0
23/12:30am 16.2 15.5 12.0 76 2.3 NW 7 9 4 5 1014.4 1014.1 0.0
23/12:00am 16.5 17.2 12.3 76 2.3 CALM 0 0 0 0 1014.5 1014.2 0.0
 
Date/Time
WST
Temp
°C
App
Temp
°C
Dew
Point
°C
Rel
Hum
%
Delta-T
°C
Wind Press
QNH
hPa
Press
MSL
hPa
Rain since
9am
mm
Dir  Spd
km/h
Gust
km/h
Spd
kts
Gust
kts
22/11:30pm 16.5 17.1 11.9 74 2.5 CALM 0 0 0 0 1014.7 1014.3 0.0
22/11:00pm 17.2 17.9 12.1 72 2.8 CALM 0 0 0 0 1014.9 1014.5 0.0
22/10:30pm 17.7 17.0 11.3 66 3.5 NW 6 6 3 3 1014.9 1014.5 0.0
22/10:08pm 18.4 17.7 11.5 64 3.8 NW 6 6 3 3 1015.1 1014.7 0.0
22/10:00pm 18.2 17.3 10.8 62 4.0 NW 6 7 3 4 1015.1 1014.7 0.0
22/09:49pm 18.4 17.2 10.3 59 4.3 NW 7 7 4 4 1015.1 1014.7 0.0
22/09:30pm 19.2 18.1 10.5 57 4.7 NW 7 9 4 5 1015.2 1014.8 0.0
22/09:00pm 21.3 20.2 10.8 51 5.8 NW 7 9 4 5 1015.1 1014.7 0.0
22/08:30pm 20.7 19.5 11.6 56 5.1 WNW 9 15 5 8 1015.0 1014.6 0.0
22/08:00pm 20.0 19.1 11.2 57 4.8 NNW 7 7 4 4 1014.8 1014.4 0.0
22/07:30pm 20.7 20.0 11.3 55 5.2 N 6 7 3 4 1014.4 1014.1 0.0
22/07:00pm 21.6 20.9 11.9 54 5.5 N 7 9 4 5 1014.1 1013.8 0.0

Other Formats:

Comma delimited format used in spreadsheet applications
http://www.bom.gov.au/fwo/IDW60801/IDW60801.94204.axf

JavaScript Object Notation format (JSON) in row-major order
http://www.bom.gov.au/fwo/IDW60801/IDW60801.94204.json